sensor_id;sensor_type;location;lat;lon;timestamp;temperature;humidity
56861;DHT22;42744;51.094;3.490;2023-04-02T00:01:45;8.00;99.90
56861;DHT22;42744;51.094;3.490;2023-04-02T00:04:18;8.00;99.90
56861;DHT22;42744;51.094;3.490;2023-04-02T00:07:22;8.00;99.90
56861;DHT22;42744;51.094;3.490;2023-04-02T00:09:56;8.00;99.90
56861;DHT22;42744;51.094;3.490;2023-04-02T00:12:22;7.90;99.90
56861;DHT22;42744;51.094;3.490;2023-04-02T00:14:51;7.90;99.90
56861;DHT22;42744;51.094;3.490;2023-04-02T00:17:20;7.90;99.90
56861;DHT22;42744;51.094;3.490;2023-04-02T00:22:18;7.80;99.90
56861;DHT22;42744;51.094;3.490;2023-04-02T00:24:45;7.90;99.90
56861;DHT22;42744;51.094;3.490;2023-04-02T00:27:14;7.90;99.90
56861;DHT22;42744;51.094;3.490;2023-04-02T00:29:45;7.80;99.90
56861;DHT22;42744;51.094;3.490;2023-04-02T00:32:18;7.80;99.90
56861;DHT22;42744;51.094;3.490;2023-04-02T00:34:46;7.80;99.90
56861;DHT22;42744;51.094;3.490;2023-04-02T00:37:16;7.80;99.90
56861;DHT22;42744;51.094;3.490;2023-04-02T00:39:50;7.80;99.90
56861;DHT22;42744;51.094;3.490;2023-04-02T00:42:19;7.80;99.90
56861;DHT22;42744;51.094;3.490;2023-04-02T00:44:45;7.80;99.90
56861;DHT22;42744;51.094;3.490;2023-04-02T00:47:34;7.80;99.90
56861;DHT22;42744;51.094;3.490;2023-04-02T00:52:34;7.80;99.90
56861;DHT22;42744;51.094;3.490;2023-04-02T00:55:08;7.80;99.90
56861;DHT22;42744;51.094;3.490;2023-04-02T00:57:41;7.80;99.90
56861;DHT22;42744;51.094;3.490;2023-04-02T01:00:26;7.80;99.90
56861;DHT22;42744;51.094;3.490;2023-04-02T01:03:26;7.80;99.90
56861;DHT22;42744;51.094;3.490;2023-04-02T01:06:15;7.80;99.90
56861;DHT22;42744;51.094;3.490;2023-04-02T01:14:11;7.80;99.90
56861;DHT22;42744;51.094;3.490;2023-04-02T01:28:26;7.70;99.90
56861;DHT22;42744;51.094;3.490;2023-04-02T01:30:55;7.70;99.90
56861;DHT22;42744;51.094;3.490;2023-04-02T01:33:26;7.70;99.90
56861;DHT22;42744;51.094;3.490;2023-04-02T01:36:01;7.70;99.90
56861;DHT22;42744;51.094;3.490;2023-04-02T01:38:42;7.70;99.90
56861;DHT22;42744;51.094;3.490;2023-04-02T01:41:25;7.70;99.90
56861;DHT22;42744;51.094;3.490;2023-04-02T01:44:06;7.70;99.90
56861;DHT22;42744;51.094;3.490;2023-04-02T01:46:35;7.70;99.90
56861;DHT22;42744;51.094;3.490;2023-04-02T01:49:13;7.70;99.90
56861;DHT22;42744;51.094;3.490;2023-04-02T01:51:42;7.70;99.90
56861;DHT22;42744;51.094;3.490;2023-04-02T01:54:10;7.70;99.90
56861;DHT22;42744;51.094;3.490;2023-04-02T01:56:38;7.60;99.90
56861;DHT22;42744;51.094;3.490;2023-04-02T01:59:05;7.60;99.90
56861;DHT22;42744;51.094;3.490;2023-04-02T02:01:46;7.60;99.90
56861;DHT22;42744;51.094;3.490;2023-04-02T02:04:15;7.70;99.90
56861;DHT22;42744;51.094;3.490;2023-04-02T02:06:47;7.70;99.90
56861;DHT22;42744;51.094;3.490;2023-04-02T02:09:19;7.60;99.90
56861;DHT22;42744;51.094;3.490;2023-04-02T02:11:48;7.60;99.90
56861;DHT22;42744;51.094;3.490;2023-04-02T02:14:18;7.60;99.90
56861;DHT22;42744;51.094;3.490;2023-04-02T02:16:46;7.60;99.90
56861;DHT22;42744;51.094;3.490;2023-04-02T02:19:37;7.60;99.90
56861;DHT22;42744;51.094;3.490;2023-04-02T02:22:27;7.60;99.90
56861;DHT22;42744;51.094;3.490;2023-04-02T02:24:56;7.60;99.90
56861;DHT22;42744;51.094;3.490;2023-04-02T02:32:44;7.60;99.90
56861;DHT22;42744;51.094;3.490;2023-04-02T02:35:42;7.50;99.90
56861;DHT22;42744;51.094;3.490;2023-04-02T02:40:55;7.50;99.90
56861;DHT22;42744;51.094;3.490;2023-04-02T02:43:25;7.50;99.90
56861;DHT22;42744;51.094;3.490;2023-04-02T02:45:52;7.50;99.90
56861;DHT22;42744;51.094;3.490;2023-04-02T02:48:24;7.40;99.90
56861;DHT22;42744;51.094;3.490;2023-04-02T02:50:53;7.50;99.90
56861;DHT22;42744;51.094;3.490;2023-04-02T02:53:23;7.50;99.90
56861;DHT22;42744;51.094;3.490;2023-04-02T02:55:56;7.40;99.90
56861;DHT22;42744;51.094;3.490;2023-04-02T02:58:27;7.40;99.90
56861;DHT22;42744;51.094;3.490;2023-04-02T03:00:55;7.40;99.90
56861;DHT22;42744;51.094;3.490;2023-04-02T03:03:29;7.40;99.90
56861;DHT22;42744;51.094;3.490;2023-04-02T03:06:04;7.40;99.90
56861;DHT22;42744;51.094;3.490;2023-04-02T03:08:42;7.40;99.90
56861;DHT22;42744;51.094;3.490;2023-04-02T03:11:15;7.40;99.90
56861;DHT22;42744;51.094;3.490;2023-04-02T03:13:48;7.30;99.90
56861;DHT22;42744;51.094;3.490;2023-04-02T03:19:26;7.30;99.90
56861;DHT22;42744;51.094;3.490;2023-04-02T03:22:34;7.30;99.90
56861;DHT22;42744;51.094;3.490;2023-04-02T03:28:02;7.30;99.90
56861;DHT22;42744;51.094;3.490;2023-04-02T03:33:30;7.30;99.90
56861;DHT22;42744;51.094;3.490;2023-04-02T03:36:16;7.30;99.90
56861;DHT22;42744;51.094;3.490;2023-04-02T03:39:09;7.20;99.90
56861;DHT22;42744;51.094;3.490;2023-04-02T03:41:54;7.20;99.90
56861;DHT22;42744;51.094;3.490;2023-04-02T03:44:33;7.20;99.90
56861;DHT22;42744;51.094;3.490;2023-04-02T03:47:09;7.20;99.90
56861;DHT22;42744;51.094;3.490;2023-04-02T03:49:55;7.20;99.90
56861;DHT22;42744;51.094;3.490;2023-04-02T03:52:26;7.20;99.90
56861;DHT22;42744;51.094;3.490;2023-04-02T03:54:55;7.20;99.90
56861;DHT22;42744;51.094;3.490;2023-04-02T04:03:14;7.20;99.90
56861;DHT22;42744;51.094;3.490;2023-04-02T04:06:04;7.10;99.90
56861;DHT22;42744;51.094;3.490;2023-04-02T04:08:43;7.20;99.90
56861;DHT22;42744;51.094;3.490;2023-04-02T04:11:17;7.10;99.90
56861;DHT22;42744;51.094;3.490;2023-04-02T04:13:58;7.10;99.90
56861;DHT22;42744;51.094;3.490;2023-04-02T04:16:31;7.10;99.90
56861;DHT22;42744;51.094;3.490;2023-04-02T04:19:14;7.10;99.90
56861;DHT22;42744;51.094;3.490;2023-04-02T04:21:43;7.10;99.90
56861;DHT22;42744;51.094;3.490;2023-04-02T04:24:19;7.00;99.90
56861;DHT22;42744;51.094;3.490;2023-04-02T04:27:04;7.00;99.90
56861;DHT22;42744;51.094;3.490;2023-04-02T04:32:39;6.90;99.90
56861;DHT22;42744;51.094;3.490;2023-04-02T04:35:24;7.00;99.90
56861;DHT22;42744;51.094;3.490;2023-04-02T04:38:17;6.90;99.90
56861;DHT22;42744;51.094;3.490;2023-04-02T04:40:49;6.90;99.90
56861;DHT22;42744;51.094;3.490;2023-04-02T04:46:16;6.90;99.90
56861;DHT22;42744;51.094;3.490;2023-04-02T04:54:16;6.90;99.90
56861;DHT22;42744;51.094;3.490;2023-04-02T04:56:52;6.90;99.90
56861;DHT22;42744;51.094;3.490;2023-04-02T04:59:30;6.80;99.90
56861;DHT22;42744;51.094;3.490;2023-04-02T05:02:22;6.80;99.90
56861;DHT22;42744;51.094;3.490;2023-04-02T05:04:50;6.80;99.90
56861;DHT22;42744;51.094;3.490;2023-04-02T05:10:06;6.80;99.90
56861;DHT22;42744;51.094;3.490;2023-04-02T05:12:39;6.80;99.90
56861;DHT22;42744;51.094;3.490;2023-04-02T05:20:49;6.70;99.90
56861;DHT22;42744;51.094;3.490;2023-04-02T05:23:27;6.70;99.90
56861;DHT22;42744;51.094;3.490;2023-04-02T05:32:14;6.70;99.90
56861;DHT22;42744;51.094;3.490;2023-04-02T05:34:46;6.70;99.90
56861;DHT22;42744;51.094;3.490;2023-04-02T05:37:20;6.70;99.90
56861;DHT22;42744;51.094;3.490;2023-04-02T05:39:53;6.70;99.90
56861;DHT22;42744;51.094;3.490;2023-04-02T05:42:27;6.70;99.90
56861;DHT22;42744;51.094;3.490;2023-04-02T05:45:12;6.70;99.90
56861;DHT22;42744;51.094;3.490;2023-04-02T05:47:40;6.60;99.90
56861;DHT22;42744;51.094;3.490;2023-04-02T05:50:16;6.60;99.90
56861;DHT22;42744;51.094;3.490;2023-04-02T05:58:30;6.60;99.90
56861;DHT22;42744;51.094;3.490;2023-04-02T06:01:41;6.60;99.90
56861;DHT22;42744;51.094;3.490;2023-04-02T06:09:47;6.70;99.90
56861;DHT22;42744;51.094;3.490;2023-04-02T06:14:45;6.70;99.90
56861;DHT22;42744;51.094;3.490;2023-04-02T06:17:17;6.70;99.90
56861;DHT22;42744;51.094;3.490;2023-04-02T06:19:45;6.70;99.90
56861;DHT22;42744;51.094;3.490;2023-04-02T06:22:33;6.70;99.90
56861;DHT22;42744;51.094;3.490;2023-04-02T06:25:27;6.60;99.90
56861;DHT22;42744;51.094;3.490;2023-04-02T06:27:56;6.70;99.90
56861;DHT22;42744;51.094;3.490;2023-04-02T06:30:34;6.60;99.90
56861;DHT22;42744;51.094;3.490;2023-04-02T06:33:03;6.70;99.90
56861;DHT22;42744;51.094;3.490;2023-04-02T06:35:39;6.70;99.90
56861;DHT22;42744;51.094;3.490;2023-04-02T06:38:13;6.70;99.90
56861;DHT22;42744;51.094;3.490;2023-04-02T06:40:43;6.70;99.90
56861;DHT22;42744;51.094;3.490;2023-04-02T06:45:48;6.70;99.90
56861;DHT22;42744;51.094;3.490;2023-04-02T06:48:18;6.70;99.90
56861;DHT22;42744;51.094;3.490;2023-04-02T06:51:00;6.70;99.90
56861;DHT22;42744;51.094;3.490;2023-04-02T06:53:33;6.70;99.90
56861;DHT22;42744;51.094;3.490;2023-04-02T06:56:28;6.70;99.90
56861;DHT22;42744;51.094;3.490;2023-04-02T06:58:57;6.70;99.90
56861;DHT22;42744;51.094;3.490;2023-04-02T07:01:31;6.70;99.90
56861;DHT22;42744;51.094;3.490;2023-04-02T07:03:58;6.60;99.90
56861;DHT22;42744;51.094;3.490;2023-04-02T07:06:25;6.60;99.90
56861;DHT22;42744;51.094;3.490;2023-04-02T07:08:52;6.60;99.90
56861;DHT22;42744;51.094;3.490;2023-04-02T07:11:20;6.60;99.90
56861;DHT22;42744;51.094;3.490;2023-04-02T07:13:49;6.60;99.90
56861;DHT22;42744;51.094;3.490;2023-04-02T07:16:22;6.60;99.90
56861;DHT22;42744;51.094;3.490;2023-04-02T07:18:51;6.60;99.90
56861;DHT22;42744;51.094;3.490;2023-04-02T07:21:18;6.50;99.90
56861;DHT22;42744;51.094;3.490;2023-04-02T07:23:44;6.50;99.90
56861;DHT22;42744;51.094;3.490;2023-04-02T07:26:16;6.50;99.90
56861;DHT22;42744;51.094;3.490;2023-04-02T07:28:43;6.50;99.90
56861;DHT22;42744;51.094;3.490;2023-04-02T07:33:41;6.50;99.90
56861;DHT22;42744;51.094;3.490;2023-04-02T07:36:15;6.50;99.90
56861;DHT22;42744;51.094;3.490;2023-04-02T07:38:43;6.50;99.90
56861;DHT22;42744;51.094;3.490;2023-04-02T07:41:09;6.50;99.90
56861;DHT22;42744;51.094;3.490;2023-04-02T07:43:36;6.50;99.90
56861;DHT22;42744;51.094;3.490;2023-04-02T07:46:03;6.50;99.90
56861;DHT22;42744;51.094;3.490;2023-04-02T07:48:29;6.50;99.90
56861;DHT22;42744;51.094;3.490;2023-04-02T07:50:55;6.50;99.90
56861;DHT22;42744;51.094;3.490;2023-04-02T07:53:40;6.50;99.90
56861;DHT22;42744;51.094;3.490;2023-04-02T07:56:07;6.50;99.90
56861;DHT22;42744;51.094;3.490;2023-04-02T07:58:33;6.50;99.90
56861;DHT22;42744;51.094;3.490;2023-04-02T08:01:00;6.50;99.90
56861;DHT22;42744;51.094;3.490;2023-04-02T08:03:26;6.60;99.90
56861;DHT22;42744;51.094;3.490;2023-04-02T08:05:55;6.50;99.90
56861;DHT22;42744;51.094;3.490;2023-04-02T08:08:23;6.60;99.90
56861;DHT22;42744;51.094;3.490;2023-04-02T08:10:50;6.50;99.90
56861;DHT22;42744;51.094;3.490;2023-04-02T08:13:17;6.50;99.90
56861;DHT22;42744;51.094;3.490;2023-04-02T08:15:43;6.60;99.90
56861;DHT22;42744;51.094;3.490;2023-04-02T08:18:10;6.60;99.90
56861;DHT22;42744;51.094;3.490;2023-04-02T08:20:36;6.60;99.90
56861;DHT22;42744;51.094;3.490;2023-04-02T08:23:03;6.60;99.90
56861;DHT22;42744;51.094;3.490;2023-04-02T08:25:29;6.50;99.90
56861;DHT22;42744;51.094;3.490;2023-04-02T08:27:56;6.40;99.90
56861;DHT22;42744;51.094;3.490;2023-04-02T08:30:22;6.40;99.90
56861;DHT22;42744;51.094;3.490;2023-04-02T08:32:48;6.40;99.90
56861;DHT22;42744;51.094;3.490;2023-04-02T08:35:15;6.40;99.90
56861;DHT22;42744;51.094;3.490;2023-04-02T08:37:42;6.40;99.90
56861;DHT22;42744;51.094;3.490;2023-04-02T08:43:11;6.40;99.90
56861;DHT22;42744;51.094;3.490;2023-04-02T08:46:05;6.50;99.90
56861;DHT22;42744;51.094;3.490;2023-04-02T08:48:36;6.50;99.90
56861;DHT22;42744;51.094;3.490;2023-04-02T08:51:05;6.50;99.90
56861;DHT22;42744;51.094;3.490;2023-04-02T08:53:37;6.50;99.90
56861;DHT22;42744;51.094;3.490;2023-04-02T08:58:57;6.50;99.90
56861;DHT22;42744;51.094;3.490;2023-04-02T09:04:20;6.50;99.90
56861;DHT22;42744;51.094;3.490;2023-04-02T09:06:48;6.40;99.90
56861;DHT22;42744;51.094;3.490;2023-04-02T09:09:17;6.40;99.90
56861;DHT22;42744;51.094;3.490;2023-04-02T09:11:54;6.50;99.90
56861;DHT22;42744;51.094;3.490;2023-04-02T09:17:27;6.50;99.90
56861;DHT22;42744;51.094;3.490;2023-04-02T09:20:12;6.60;99.90
56861;DHT22;42744;51.094;3.490;2023-04-02T09:22:38;6.60;99.90
56861;DHT22;42744;51.094;3.490;2023-04-02T09:25:10;6.60;99.90
56861;DHT22;42744;51.094;3.490;2023-04-02T09:27:37;6.60;99.90
56861;DHT22;42744;51.094;3.490;2023-04-02T09:32:49;6.50;99.90
56861;DHT22;42744;51.094;3.490;2023-04-02T09:35:21;6.50;99.90
56861;DHT22;42744;51.094;3.490;2023-04-02T09:38:21;6.40;99.90
56861;DHT22;42744;51.094;3.490;2023-04-02T09:41:04;6.40;99.90
56861;DHT22;42744;51.094;3.490;2023-04-02T09:43:33;6.30;99.90
56861;DHT22;42744;51.094;3.490;2023-04-02T09:46:03;6.20;99.90
56861;DHT22;42744;51.094;3.490;2023-04-02T09:48:49;6.10;99.90
56861;DHT22;42744;51.094;3.490;2023-04-02T09:51:20;6.20;99.90
56861;DHT22;42744;51.094;3.490;2023-04-02T09:56:34;6.10;99.90
56861;DHT22;42744;51.094;3.490;2023-04-02T09:59:14;6.10;99.90
56861;DHT22;42744;51.094;3.490;2023-04-02T10:04:43;6.20;99.90
56861;DHT22;42744;51.094;3.490;2023-04-02T10:09:57;6.10;99.90
56861;DHT22;42744;51.094;3.490;2023-04-02T10:12:26;6.20;99.90
56861;DHT22;42744;51.094;3.490;2023-04-02T10:14:53;6.20;99.90
56861;DHT22;42744;51.094;3.490;2023-04-02T10:17:27;6.20;99.90
56861;DHT22;42744;51.094;3.490;2023-04-02T10:20:10;6.20;99.90
56861;DHT22;42744;51.094;3.490;2023-04-02T10:22:43;6.20;99.90
56861;DHT22;42744;51.094;3.490;2023-04-02T10:25:15;6.30;99.90
56861;DHT22;42744;51.094;3.490;2023-04-02T10:33:15;6.30;99.90
56861;DHT22;42744;51.094;3.490;2023-04-02T10:41:12;6.30;99.90
56861;DHT22;42744;51.094;3.490;2023-04-02T10:46:49;6.30;99.90
56861;DHT22;42744;51.094;3.490;2023-04-02T10:49:31;6.30;99.90
56861;DHT22;42744;51.094;3.490;2023-04-02T10:52:06;6.30;99.90
56861;DHT22;42744;51.094;3.490;2023-04-02T10:54:41;6.30;99.90
56861;DHT22;42744;51.094;3.490;2023-04-02T10:57:37;6.30;99.90
56861;DHT22;42744;51.094;3.490;2023-04-02T11:03:09;6.60;99.90
56861;DHT22;42744;51.094;3.490;2023-04-02T11:05:49;6.70;99.90
56861;DHT22;42744;51.094;3.490;2023-04-02T11:13:51;6.90;99.90
56861;DHT22;42744;51.094;3.490;2023-04-02T11:16:19;6.90;99.90
56861;DHT22;42744;51.094;3.490;2023-04-02T11:26:51;6.60;99.90
56861;DHT22;42744;51.094;3.490;2023-04-02T11:29:23;6.70;99.90
56861;DHT22;42744;51.094;3.490;2023-04-02T11:37:56;6.60;99.90
56861;DHT22;42744;51.094;3.490;2023-04-02T11:48:30;6.40;99.90
56861;DHT22;42744;51.094;3.490;2023-04-02T11:50:58;6.40;99.90
56861;DHT22;42744;51.094;3.490;2023-04-02T11:53:32;6.40;99.90
56861;DHT22;42744;51.094;3.490;2023-04-02T11:56:18;6.30;99.90
56861;DHT22;42744;51.094;3.490;2023-04-02T12:12:36;6.80;99.90
56861;DHT22;42744;51.094;3.490;2023-04-02T12:18:20;6.90;99.90
56861;DHT22;42744;51.094;3.490;2023-04-02T12:20:53;6.90;99.90
56861;DHT22;42744;51.094;3.490;2023-04-02T12:23:32;6.90;99.90
56861;DHT22;42744;51.094;3.490;2023-04-02T12:26:26;7.00;99.90
56861;DHT22;42744;51.094;3.490;2023-04-02T12:29:19;6.90;99.90
56861;DHT22;42744;51.094;3.490;2023-04-02T12:31:48;6.90;99.90
56861;DHT22;42744;51.094;3.490;2023-04-02T12:34:16;6.90;99.90
56861;DHT22;42744;51.094;3.490;2023-04-02T12:39:31;7.40;99.90
56861;DHT22;42744;51.094;3.490;2023-04-02T12:41:58;7.60;99.90
56861;DHT22;42744;51.094;3.490;2023-04-02T12:44:27;7.40;99.90
56861;DHT22;42744;51.094;3.490;2023-04-02T12:46:55;7.10;99.90
56861;DHT22;42744;51.094;3.490;2023-04-02T12:49:33;7.00;99.90
56861;DHT22;42744;51.094;3.490;2023-04-02T12:52:06;7.00;99.90
56861;DHT22;42744;51.094;3.490;2023-04-02T12:54:44;7.00;99.90
56861;DHT22;42744;51.094;3.490;2023-04-02T13:02:49;7.10;99.90
56861;DHT22;42744;51.094;3.490;2023-04-02T13:08:02;7.10;99.90
56861;DHT22;42744;51.094;3.490;2023-04-02T13:10:28;7.10;99.90
56861;DHT22;42744;51.094;3.490;2023-04-02T13:13:00;7.20;99.90
56861;DHT22;42744;51.094;3.490;2023-04-02T13:15:29;7.10;99.90
56861;DHT22;42744;51.094;3.490;2023-04-02T13:22:54;6.80;99.90
56861;DHT22;42744;51.094;3.490;2023-04-02T13:25:27;6.80;99.90
56861;DHT22;42744;51.094;3.490;2023-04-02T13:27:54;6.80;99.90
56861;DHT22;42744;51.094;3.490;2023-04-02T13:30:26;6.70;99.90
56861;DHT22;42744;51.094;3.490;2023-04-02T13:32:52;6.80;99.90
56861;DHT22;42744;51.094;3.490;2023-04-02T13:35:18;6.90;99.90
56861;DHT22;42744;51.094;3.490;2023-04-02T13:37:46;7.00;99.90
56861;DHT22;42744;51.094;3.490;2023-04-02T13:40:13;6.90;99.90
56861;DHT22;42744;51.094;3.490;2023-04-02T13:42:42;6.80;99.90
56861;DHT22;42744;51.094;3.490;2023-04-02T13:47:40;6.90;99.90
56861;DHT22;42744;51.094;3.490;2023-04-02T13:50:07;7.00;99.90
56861;DHT22;42744;51.094;3.490;2023-04-02T13:52:34;7.10;99.90
56861;DHT22;42744;51.094;3.490;2023-04-02T13:55:00;7.10;99.90
56861;DHT22;42744;51.094;3.490;2023-04-02T13:57:27;7.20;99.90
56861;DHT22;42744;51.094;3.490;2023-04-02T13:59:53;7.10;99.90
56861;DHT22;42744;51.094;3.490;2023-04-02T14:02:24;7.10;99.90
56861;DHT22;42744;51.094;3.490;2023-04-02T14:07:41;7.30;99.90
56861;DHT22;42744;51.094;3.490;2023-04-02T14:16:13;7.30;99.90
56861;DHT22;42744;51.094;3.490;2023-04-02T14:19:08;7.30;99.90
56861;DHT22;42744;51.094;3.490;2023-04-02T14:22:01;7.30;99.90
56861;DHT22;42744;51.094;3.490;2023-04-02T14:32:59;7.10;99.90
56861;DHT22;42744;51.094;3.490;2023-04-02T14:35:40;7.00;99.90
56861;DHT22;42744;51.094;3.490;2023-04-02T14:41:30;7.70;99.90
56861;DHT22;42744;51.094;3.490;2023-04-02T14:43:57;7.70;99.90
56861;DHT22;42744;51.094;3.490;2023-04-02T14:46:25;7.50;99.90
56861;DHT22;42744;51.094;3.490;2023-04-02T14:51:38;7.40;99.90
56861;DHT22;42744;51.094;3.490;2023-04-02T14:56:54;7.50;99.90
56861;DHT22;42744;51.094;3.490;2023-04-02T14:59:51;7.80;99.90
56861;DHT22;42744;51.094;3.490;2023-04-02T15:02:38;7.90;99.90
56861;DHT22;42744;51.094;3.490;2023-04-02T15:07:44;7.80;99.90
56861;DHT22;42744;51.094;3.490;2023-04-02T15:10:35;7.80;99.90
56861;DHT22;42744;51.094;3.490;2023-04-02T15:13:12;7.80;99.90
56861;DHT22;42744;51.094;3.490;2023-04-02T15:15:54;7.80;99.90
56861;DHT22;42744;51.094;3.490;2023-04-02T15:18:22;7.80;99.90
56861;DHT22;42744;51.094;3.490;2023-04-02T15:29:43;7.80;99.90
56861;DHT22;42744;51.094;3.490;2023-04-02T15:32:37;7.80;99.90
56861;DHT22;42744;51.094;3.490;2023-04-02T15:38:10;7.80;99.90
56861;DHT22;42744;51.094;3.490;2023-04-02T15:41:00;7.80;99.90
56861;DHT22;42744;51.094;3.490;2023-04-02T15:51:37;7.80;99.90
56861;DHT22;42744;51.094;3.490;2023-04-02T16:03:03;8.00;99.90
56861;DHT22;42744;51.094;3.490;2023-04-02T16:11:12;7.90;99.90
56861;DHT22;42744;51.094;3.490;2023-04-02T16:13:40;8.00;99.90
56861;DHT22;42744;51.094;3.490;2023-04-02T16:16:34;8.10;99.90
56861;DHT22;42744;51.094;3.490;2023-04-02T16:24:34;8.20;99.90
56861;DHT22;42744;51.094;3.490;2023-04-02T16:30:15;8.10;99.90
56861;DHT22;42744;51.094;3.490;2023-04-02T16:35:31;8.00;99.90
56861;DHT22;42744;51.094;3.490;2023-04-02T16:43:29;8.00;99.90
56861;DHT22;42744;51.094;3.490;2023-04-02T16:46:36;7.90;99.90
56861;DHT22;42744;51.094;3.490;2023-04-02T16:51:44;7.80;99.90
56861;DHT22;42744;51.094;3.490;2023-04-02T17:00:40;7.60;99.90
56861;DHT22;42744;51.094;3.490;2023-04-02T17:03:13;7.60;99.90
56861;DHT22;42744;51.094;3.490;2023-04-02T17:06:04;7.50;99.90
56861;DHT22;42744;51.094;3.490;2023-04-02T17:11:08;7.60;99.90
56861;DHT22;42744;51.094;3.490;2023-04-02T17:13:38;7.50;99.90
56861;DHT22;42744;51.094;3.490;2023-04-02T17:16:20;7.50;99.90
56861;DHT22;42744;51.094;3.490;2023-04-02T17:18:52;7.50;99.90
56861;DHT22;42744;51.094;3.490;2023-04-02T17:21:23;7.50;99.90
56861;DHT22;42744;51.094;3.490;2023-04-02T17:26:18;7.50;99.90
56861;DHT22;42744;51.094;3.490;2023-04-02T17:28:47;7.50;99.90
56861;DHT22;42744;51.094;3.490;2023-04-02T17:31:27;7.40;99.90
56861;DHT22;42744;51.094;3.490;2023-04-02T17:33:55;7.40;99.90
56861;DHT22;42744;51.094;3.490;2023-04-02T17:36:45;7.40;99.90
56861;DHT22;42744;51.094;3.490;2023-04-02T17:39:22;7.40;99.90
56861;DHT22;42744;51.094;3.490;2023-04-02T17:42:06;7.30;99.90
56861;DHT22;42744;51.094;3.490;2023-04-02T17:47:48;7.30;99.90
56861;DHT22;42744;51.094;3.490;2023-04-02T17:50:44;7.40;99.90
56861;DHT22;42744;51.094;3.490;2023-04-02T17:53:24;7.30;99.90
56861;DHT22;42744;51.094;3.490;2023-04-02T18:01:47;7.20;99.90
56861;DHT22;42744;51.094;3.490;2023-04-02T18:07:41;7.00;99.90
56861;DHT22;42744;51.094;3.490;2023-04-02T18:10:14;6.90;99.90
56861;DHT22;42744;51.094;3.490;2023-04-02T18:12:46;6.80;99.90
56861;DHT22;42744;51.094;3.490;2023-04-02T18:24:28;6.50;99.90
56861;DHT22;42744;51.094;3.490;2023-04-02T18:46:02;6.00;99.90
56861;DHT22;42744;51.094;3.490;2023-04-02T18:48:38;5.80;99.90
56861;DHT22;42744;51.094;3.490;2023-04-02T18:51:18;5.80;99.90
56861;DHT22;42744;51.094;3.490;2023-04-02T18:53:53;5.80;99.90
56861;DHT22;42744;51.094;3.490;2023-04-02T18:56:21;5.70;99.90
56861;DHT22;42744;51.094;3.490;2023-04-02T18:59:01;5.70;99.90
56861;DHT22;42744;51.094;3.490;2023-04-02T19:01:35;5.70;99.90
56861;DHT22;42744;51.094;3.490;2023-04-02T19:04:32;5.60;99.90
56861;DHT22;42744;51.094;3.490;2023-04-02T19:07:03;5.50;99.90
56861;DHT22;42744;51.094;3.490;2023-04-02T19:09:33;5.50;99.90
56861;DHT22;42744;51.094;3.490;2023-04-02T19:12:00;5.40;99.90
56861;DHT22;42744;51.094;3.490;2023-04-02T19:14:27;5.40;99.90
56861;DHT22;42744;51.094;3.490;2023-04-02T19:20:10;5.30;99.90
56861;DHT22;42744;51.094;3.490;2023-04-02T19:23:06;5.30;99.90
56861;DHT22;42744;51.094;3.490;2023-04-02T19:26:00;5.20;99.90
56861;DHT22;42744;51.094;3.490;2023-04-02T19:28:39;5.10;99.90
56861;DHT22;42744;51.094;3.490;2023-04-02T19:31:57;5.00;99.90
56861;DHT22;42744;51.094;3.490;2023-04-02T19:34:22;4.90;99.90
56861;DHT22;42744;51.094;3.490;2023-04-02T19:44:52;4.60;99.90
56861;DHT22;42744;51.094;3.490;2023-04-02T19:47:19;4.60;99.90
56861;DHT22;42744;51.094;3.490;2023-04-02T19:49:47;4.50;99.90
56861;DHT22;42744;51.094;3.490;2023-04-02T19:52:13;4.50;99.90
56861;DHT22;42744;51.094;3.490;2023-04-02T19:54:39;4.40;99.90
56861;DHT22;42744;51.094;3.490;2023-04-02T19:57:05;4.40;99.90
56861;DHT22;42744;51.094;3.490;2023-04-02T19:59:32;4.40;99.90
56861;DHT22;42744;51.094;3.490;2023-04-02T20:01:58;4.30;99.90
56861;DHT22;42744;51.094;3.490;2023-04-02T20:04:24;4.30;99.90
56861;DHT22;42744;51.094;3.490;2023-04-02T20:06:50;4.30;99.90
56861;DHT22;42744;51.094;3.490;2023-04-02T20:09:16;4.20;99.90
56861;DHT22;42744;51.094;3.490;2023-04-02T20:11:43;4.20;99.90
56861;DHT22;42744;51.094;3.490;2023-04-02T20:14:09;4.10;99.90
56861;DHT22;42744;51.094;3.490;2023-04-02T20:16:35;4.00;99.90
56861;DHT22;42744;51.094;3.490;2023-04-02T20:19:03;4.00;99.90
56861;DHT22;42744;51.094;3.490;2023-04-02T20:21:29;4.00;99.90
56861;DHT22;42744;51.094;3.490;2023-04-02T20:24:04;3.90;99.90
56861;DHT22;42744;51.094;3.490;2023-04-02T20:26:30;3.90;99.90
56861;DHT22;42744;51.094;3.490;2023-04-02T20:28:56;3.90;99.90
56861;DHT22;42744;51.094;3.490;2023-04-02T20:31:22;3.80;99.90
56861;DHT22;42744;51.094;3.490;2023-04-02T20:33:48;3.80;99.90
56861;DHT22;42744;51.094;3.490;2023-04-02T20:36:18;3.80;99.90
56861;DHT22;42744;51.094;3.490;2023-04-02T20:38:44;3.70;99.90
56861;DHT22;42744;51.094;3.490;2023-04-02T20:41:10;3.60;99.90
56861;DHT22;42744;51.094;3.490;2023-04-02T20:43:37;3.60;99.90
56861;DHT22;42744;51.094;3.490;2023-04-02T20:46:05;3.60;99.90
56861;DHT22;42744;51.094;3.490;2023-04-02T20:48:33;3.60;99.90
56861;DHT22;42744;51.094;3.490;2023-04-02T20:51:02;3.50;99.90
56861;DHT22;42744;51.094;3.490;2023-04-02T20:53:30;3.50;99.90
56861;DHT22;42744;51.094;3.490;2023-04-02T20:56:04;3.50;99.90
56861;DHT22;42744;51.094;3.490;2023-04-02T20:58:31;3.50;99.90
56861;DHT22;42744;51.094;3.490;2023-04-02T21:01:17;3.50;99.90
56861;DHT22;42744;51.094;3.490;2023-04-02T21:03:44;3.40;99.90
56861;DHT22;42744;51.094;3.490;2023-04-02T21:06:18;3.40;99.90
56861;DHT22;42744;51.094;3.490;2023-04-02T21:08:46;3.30;99.90
56861;DHT22;42744;51.094;3.490;2023-04-02T21:11:14;3.30;99.90
56861;DHT22;42744;51.094;3.490;2023-04-02T21:13:40;3.20;99.90
56861;DHT22;42744;51.094;3.490;2023-04-02T21:16:13;3.20;99.90
56861;DHT22;42744;51.094;3.490;2023-04-02T21:18:41;3.20;99.90
56861;DHT22;42744;51.094;3.490;2023-04-02T21:21:10;3.10;99.90
56861;DHT22;42744;51.094;3.490;2023-04-02T21:23:40;3.10;99.90
56861;DHT22;42744;51.094;3.490;2023-04-02T21:26:15;3.10;99.90
56861;DHT22;42744;51.094;3.490;2023-04-02T21:28:42;3.00;99.90
56861;DHT22;42744;51.094;3.490;2023-04-02T21:31:14;3.00;99.90
56861;DHT22;42744;51.094;3.490;2023-04-02T21:33:43;2.90;99.90
56861;DHT22;42744;51.094;3.490;2023-04-02T21:36:19;2.90;99.90
56861;DHT22;42744;51.094;3.490;2023-04-02T21:38:47;2.90;99.90
56861;DHT22;42744;51.094;3.490;2023-04-02T21:41:19;2.80;99.90
56861;DHT22;42744;51.094;3.490;2023-04-02T21:43:47;2.80;99.90
56861;DHT22;42744;51.094;3.490;2023-04-02T21:46:18;2.70;99.90
56861;DHT22;42744;51.094;3.490;2023-04-02T21:48:45;2.70;99.90
56861;DHT22;42744;51.094;3.490;2023-04-02T21:51:17;2.70;99.90
56861;DHT22;42744;51.094;3.490;2023-04-02T21:53:43;2.70;99.90
56861;DHT22;42744;51.094;3.490;2023-04-02T21:56:12;2.70;99.90
56861;DHT22;42744;51.094;3.490;2023-04-02T21:58:39;2.70;99.90
56861;DHT22;42744;51.094;3.490;2023-04-02T22:01:05;2.60;99.90
56861;DHT22;42744;51.094;3.490;2023-04-02T22:03:32;2.60;99.90